Date,TemperatureHighF,TemperatureAvgF,TemperatureLowF,DewpointHighF,DewpointAvgF,DewpointLowF,HumidityHigh,HumidityAvg,HumidityLow,PressureMaxIn,PressureMinIn,WindSpeedMaxMPH,WindSpeedAvgMPH,GustSpeedMaxMPH,PrecipitationSumIn
2013-1-1,48.4,45.9,43.1,46.5,39.2,30.2,93,78,57,30.10,29.91,5,1,0,0.23
2013-1-2,46.8,42.5,38.7,44.9,38.9,31.5,94,87,72,30.18,29.91,3,0,0,0.15
2013-1-3,41.1,36.8,28.2,33.3,29.5,25.1,89,75,62,30.27,30.14,1,0,0,0.00
2013-1-4,49.4,36.9,27.6,27.1,24.2,22.1,90,62,40,30.33,30.21,6,2,0,0.00
2013-1-5,48.8,35.9,26.0,29.0,23.6,20.0,80,62,44,30.40,30.28,2,0,0,0.00
2013-1-6,51.9,46.4,40.4,38.6,35.6,31.2,83,66,59,30.19,30.04,4,0,0,0.02
2013-1-7,49.9,40.8,32.0,33.4,30.1,25.8,83,66,52,30.43,30.19,4,0,0,0.00
2013-1-8,50.7,46.7,43.7,42.4,40.8,39.3,86,80,73,30.41,30.38,0,0,0,0.00
2013-1-9,64.2,50.6,36.3,53.5,45.0,33.6,93,81,67,30.45,30.35,6,0,0,0.00
2013-1-10,59.0,51.5,44.1,48.7,41.2,37.3,92,70,47,30.52,30.40,2,0,0,0.00
2013-1-11,48.2,43.2,40.0,43.6,40.3,37.7,94,90,70,30.40,30.15,1,0,0,0.12
2013-1-12,51.2,48.5,45.2,49.7,47.1,43.6,95,95,94,30.17,30.11,2,0,0,0.00
2013-1-13,72.7,69.0,62.5,62.3,60.5,57.9,85,75,68,30.04,30.00,9,3,0,0.01
2013-1-14,61.3,57.0,51.3,59.6,55.3,49.3,94,94,93,30.16,30.08,6,1,0,0.80
2013-1-15,51.0,42.4,39.6,48.6,40.6,37.7,94,93,92,30.22,30.06,5,1,0,0.20
2013-1-16,48.7,43.2,38.1,47.3,41.8,36.5,95,95,94,30.08,29.95,2,0,0,0.51
2013-1-17,49.1,42.4,32.6,47.7,40.8,30.8,95,94,92,30.10,29.89,7,1,0,1.53
2013-1-18,41.6,35.2,28.3,31.3,28.6,26.1,93,78,55,30.53,30.47,2,0,0,0.50
2013-1-19,50.6,37.2,24.8,33.4,28.5,22.8,93,73,48,30.50,30.15,5,1,0,0.04
2013-1-20,60.3,45.9,33.7,38.9,31.9,27.3,79,59,39,30.15,29.99,7,2,0,0.00
2013-1-21,57.4,42.0,28.1,36.0,28.2,19.3,92,62,37,30.07,29.86,11,2,0,0.01
2013-1-22,38.8,30.6,23.9,19.2,7.2,2.3,50,37,28,30.28,29.97,7,2,0,0.00
2013-1-23,41.4,28.2,18.5,20.8,12.4,4.4,76,52,42,30.37,30.17,7,2,0,0.00
2013-1-24,35.6,29.6,22.8,24.2,11.7,6.1,77,48,37,30.52,30.03,7,2,0,0.00
2013-1-25,23.0,21.3,20.0,10.0,8.3,5.8,64,57,48,30.53,30.48,0,0,0,0.00
2013-1-26,39.1,34.3,28.1,30.1,27.8,23.1,91,77,68,30.42,30.22,2,0,0,0.10
2013-1-27,41.1,33.0,24.4,29.0,24.7,18.5,80,72,61,30.60,30.41,2,0,0,0.01
2013-1-28,48.6,41.5,33.5,43.1,35.2,27.3,89,79,65,30.49,30.22,6,2,0,0.03
2013-1-29,71.6,55.7,44.8,58.5,49.2,42.2,94,80,61,30.23,30.03,7,2,0,0.00
2013-1-30,71.5,66.8,58.2,62.9,60.4,55.6,92,81,69,29.58,29.34,10,7,0,1.25
2013-1-31,58.1,45.7,35.5,55.5,37.0,22.0,91,72,54,29.98,29.38,10,5,0,0.03
2013-2-1,40.2,32.0,23.5,28.2,14.4,7.7,66,49,35,30.38,29.84,11,4,0,0.00
2013-2-2,39.7,30.4,18.3,30.4,16.2,9.2,85,57,39,30.40,30.04,7,1,0,0.00
2013-2-3,47.9,37.3,31.6,30.8,29.5,26.8,91,76,50,30.04,29.84,7,1,0,0.01
2013-2-4,46.7,43.0,40.6,29.1,28.5,28.0,61,56,49,30.01,29.99,4,2,0,0.00
2013-2-5,59.0,45.4,36.7,39.1,32.6,28.2,79,62,45,29.99,29.88,6,1,0,0.00
2013-2-6,58.2,44.4,31.1,35.2,30.3,26.4,90,61,35,30.27,29.96,5,1,0,0.00
2013-2-7,41.7,37.7,34.3,35.3,31.7,26.3,92,79,60,30.33,30.05,4,1,0,0.81
2013-2-8,57.2,43.0,34.7,46.2,37.0,30.0,93,81,47,30.05,29.83,8,3,0,0.22
2013-2-9,52.7,43.7,30.0,26.7,23.1,20.6,74,45,32,30.36,30.26,5,1,0,0.00
2013-2-10,30.0,29.9,29.9,22.9,22.9,22.6,75,75,75,30.36,30.35,0,0,0,0.00
2013-2-11,56.2,51.1,42.2,54.5,49.1,39.6,95,93,89,30.10,29.92,7,2,0,0.05
2013-2-12,58.6,50.7,42.3,49.7,34.4,29.0,89,55,35,30.08,29.90,7,1,0,0.00
2013-2-13,49.4,44.1,38.6,43.5,40.5,33.1,93,88,66,29.95,29.61,7,1,0,0.37
2013-2-14,52.7,40.7,29.0,34.7,31.4,26.4,92,71,47,30.06,29.83,4,1,0,0.00
2013-2-15,60.5,46.4,31.4,39.8,34.1,28.5,92,65,38,30.09,29.91,6,1,0,0.00
2013-2-16,41.8,35.8,29.4,33.3,27.9,15.8,88,73,51,29.97,29.82,5,1,0,0.03
2013-2-17,36.6,29.1,23.4,16.6,12.2,6.9,72,50,35,30.28,29.94,9,4,0,0.00
2013-2-18,53.8,36.6,18.4,28.6,21.8,14.4,88,58,37,30.40,30.20,5,1,0,0.00
2013-2-19,46.9,40.3,36.4,42.1,33.3,21.9,93,77,46,30.21,29.85,6,2,0,0.24
2013-2-20,51.6,40.2,27.4,22.2,18.7,14.3,77,44,26,30.14,29.98,6,2,0,0.00
2013-2-21,53.4,39.4,23.9,25.8,19.6,14.7,71,46,31,30.23,30.11,3,0,0,0.00
2013-2-22,34.8,34.4,34.4,32.2,32.0,31.8,91,91,90,30.22,30.18,0,0,0,0.20
2013-2-23,45.0,41.2,34.6,41.8,38.9,32.8,94,92,88,30.01,29.82,1,0,0,0.24
2013-2-24,60.8,49.6,40.3,42.8,36.8,28.6,94,67,34,29.98,29.80,7,2,0,0.01
2013-2-25,41.0,36.2,32.8,25.9,24.4,23.5,69,62,54,30.16,30.11,2,0,0,0.00
2013-2-26,39.4,35.5,32.1,37.5,31.8,23.7,94,87,67,30.15,29.59,3,1,0,0.77
2013-2-27,56.7,46.0,38.3,40.1,37.8,34.6,94,75,50,29.79,29.63,7,2,0,0.01
2013-2-28,46.4,40.3,33.8,40.0,31.3,27.4,86,71,50,29.86,29.69,6,1,0,0.00
2013-3-1,43.6,40.3,35.0,30.6,28.6,25.0,71,63,54,29.92,29.83,5,1,0,0.00
2013-3-2,44.6,35.6,28.9,29.2,24.8,19.7,86,66,51,29.93,29.81,5,1,0,0.00
2013-3-3,42.7,34.0,27.8,24.1,19.9,15.9,67,56,46,29.99,29.87,6,2,0,0.00
2013-3-4,52.3,36.3,25.1,22.5,17.3,14.7,66,48,27,30.13,29.98,7,2,0,0.00
2013-3-13,52.6,43.6,34.4,29.6,25.1,17.7,56,48,38,30.16,29.96,11,6,0,0.00
2013-3-14,50.7,39.2,29.7,25.3,20.1,16.5,61,47,33,30.25,30.13,8,2,0,0.00
2013-3-15,62.8,46.8,29.1,39.4,30.1,20.5,78,53,42,30.18,29.88,9,2,0,0.00
2013-3-16,77.8,61.8,47.6,56.7,47.3,36.8,85,61,42,29.88,29.61,10,3,0,0.05
2013-3-17,62.2,49.1,38.3,52.9,44.5,35.9,93,84,71,30.16,29.81,5,2,0,0.00
2013-3-18,38.9,37.2,36.0,36.9,35.2,34.1,93,92,91,30.19,29.99,4,1,0,0.02
2013-3-20,50.4,49.4,47.0,28.9,25.4,22.3,49,39,34,29.81,29.77,4,2,0,0.00
2013-3-21,47.0,38.2,31.6,28.7,20.1,14.2,64,48,37,29.87,29.75,8,4,0,0.00
2013-3-22,50.2,47.2,42.5,23.6,22.4,20.5,44,37,32,30.00,29.97,5,1,0,0.00
2013-3-23,57.6,49.8,41.2,36.3,31.2,24.4,71,50,38,30.06,29.89,2,0,0,0.00
2013-3-24,41.4,38.0,35.1,34.6,33.3,31.6,92,83,70,29.93,29.55,5,1,0,1.06
2013-3-25,45.0,39.9,32.7,35.6,28.0,24.2,93,64,48,29.83,29.55,11,5,0,0.04
2013-3-26,45.2,39.4,32.4,29.6,26.9,24.3,76,61,50,30.14,29.82,7,2,0,0.00
2013-3-27,47.9,39.7,32.7,27.5,25.6,23.6,74,58,42,30.24,30.13,8,3,0,0.00
2013-3-28,54.7,41.6,29.2,30.0,25.9,22.2,78,55,38,30.30,30.17,8,2,0,0.00
2013-3-29,59.7,44.7,27.5,33.1,28.4,23.6,88,56,33,30.34,30.16,6,1,0,0.00
2013-3-30,65.4,52.3,37.4,39.4,34.6,28.7,74,53,35,30.23,30.06,4,1,0,0.00
2013-3-31,65.4,55.1,48.9,56.0,49.7,39.2,93,83,68,30.07,29.78,6,1,0,0.45
2013-4-1,69.8,58.0,48.1,51.9,45.7,35.9,94,67,41,29.97,29.81,10,2,0,0.04
2013-4-2,59.0,48.1,34.4,35.8,28.9,23.3,80,50,30,30.15,29.96,7,2,0,0.00
2013-4-3,57.7,46.9,32.8,30.1,24.0,18.8,62,41,30,30.30,30.13,5,1,0,0.00
2013-4-4,46.9,39.5,34.8,34.9,27.2,20.0,92,65,38,30.35,29.97,4,1,0,0.77
2013-4-5,65.9,48.5,34.5,46.8,38.6,32.4,94,72,33,30.03,29.89,6,1,0,0.05
2013-4-6,65.4,51.9,37.4,39.0,35.0,31.3,81,55,36,30.26,30.03,5,1,0,0.00
2013-4-7,71.0,57.6,41.9,48.0,42.9,35.1,86,59,42,30.24,30.07,9,2,0,0.00
2013-4-8,78.3,66.1,54.2,58.4,53.5,45.3,87,66,47,30.13,30.00,8,2,0,0.00
2013-4-9,84.8,71.8,58.3,60.6,56.9,52.4,85,61,42,30.15,30.01,7,2,0,0.00
2013-4-10,86.6,75.1,62.5,64.2,60.0,55.9,80,61,45,30.05,29.89,6,2,0,0.00
2013-4-11,81.8,71.9,62.0,65.2,61.2,57.0,86,70,53,29.93,29.72,8,2,0,0.00
2013-4-12,83.0,71.6,61.0,65.9,59.4,44.3,95,68,43,29.75,29.55,10,3,0,0.81
2013-4-13,75.1,61.7,44.7,47.7,42.8,37.9,82,52,31,29.99,29.75,6,1,0,0.00
2013-4-14,80.9,63.8,44.6,53.3,45.0,38.5,86,55,29,30.08,29.97,3,0,0,0.00
2013-4-15,68.2,60.2,54.5,58.7,55.3,52.4,94,84,68,30.18,29.99,1,0,0,0.14
2013-4-16,77.7,66.7,57.7,64.3,59.3,55.0,93,78,60,30.27,30.14,1,0,0,0.00
2013-4-17,81.3,68.8,59.0,64.6,60.2,55.8,92,75,53,30.19,30.07,2,0,0,0.00
2013-4-18,80.4,71.4,65.1,64.1,61.2,59.0,84,71,52,30.14,29.97,3,0,0,0.00
2013-4-19,77.1,68.3,58.4,68.6,63.3,51.9,94,84,73,29.97,29.65,8,2,0,0.50
2013-4-20,64.6,53.7,43.8,52.2,37.6,31.4,80,56,35,30.26,29.82,5,1,0,0.00
2013-4-21,60.4,49.5,41.1,41.9,37.0,31.6,83,63,48,30.48,30.25,3,0,0,0.00
2013-4-22,63.2,47.0,36.1,38.9,34.5,29.7,89,65,35,30.46,30.26,3,0,0,0.00
2013-4-23,64.0,58.7,56.6,52.4,51.5,50.7,83,77,66,30.12,30.09,0,0,0,0.00
2013-4-24,75.4,62.9,50.9,59.6,54.3,48.1,93,75,55,30.10,29.93,8,2,0,0.00
2013-4-25,70.8,58.7,47.6,57.3,42.7,35.3,77,57,29,30.26,29.98,3,0,0,0.00
2013-4-26,71.3,56.9,41.2,47.1,39.6,32.1,81,55,34,30.42,30.26,2,0,0,0.00
2013-4-27,68.3,60.1,53.3,53.5,49.5,42.3,88,69,54,30.34,30.23,1,0,0,0.00
2013-4-28,57.8,54.9,52.7,54.2,52.3,50.7,95,91,84,30.23,30.04,0,0,0,1.32
2013-4-29,69.8,59.1,53.8,62.8,56.2,52.4,95,90,78,30.04,29.95,1,0,0,0.30
2013-4-30,66.1,59.0,53.8,59.2,55.4,51.1,95,88,76,30.18,29.99,1,0,0,0.00
2013-5-1,64.7,58.3,53.6,58.0,54.5,51.3,94,88,78,30.31,30.16,2,0,0,0.00
2013-5-2,62.1,57.4,54.3,56.1,52.7,48.9,92,84,80,30.32,30.25,1,0,0,0.00
2013-5-3,66.5,57.1,48.0,54.4,49.9,43.2,94,78,61,30.26,30.14,2,0,0,0.00
2013-5-4,59.9,52.8,47.2,50.9,46.5,42.3,90,79,66,30.19,30.07,2,0,0,0.00
2013-5-5,55.1,51.8,47.7,53.1,47.9,43.1,93,87,76,30.09,29.95,2,0,0,0.08
2013-5-6,67.3,58.5,54.3,63.4,56.5,52.4,96,93,83,29.98,29.80,1,0,0,1.71
2013-5-7,71.1,59.7,54.0,59.0,54.7,51.7,95,85,54,29.92,29.82,4,0,0,0.15
2013-5-8,67.8,58.5,51.0,61.2,54.9,49.3,95,88,73,29.98,29.89,1,0,0,0.26
2013-5-9,81.2,65.2,49.8,62.2,56.5,48.0,96,76,49,30.05,29.96,2,0,0,0.01
2013-5-10,84.8,70.5,55.3,66.2,60.4,53.0,95,72,50,30.04,29.88,4,0,0,0.00
2013-5-11,79.8,72.2,65.2,64.4,62.3,60.7,90,72,56,29.91,29.74,5,1,0,0.07
2013-5-12,69.5,63.1,49.8,53.0,44.1,37.3,73,51,37,30.02,29.88,7,2,0,0.02
2013-5-13,66.3,53.6,40.7,42.1,37.6,35.1,86,58,34,30.17,30.02,3,0,0,0.00
2013-5-14,72.2,56.1,37.2,48.0,41.7,34.1,92,62,37,30.24,30.03,3,0,0,0.00
2013-5-15,89.5,72.3,57.2,67.8,57.7,46.1,76,61,46,30.03,29.85,3,1,0,0.00
2013-5-16,85.2,73.2,61.8,65.6,61.4,56.9,89,68,49,29.95,29.86,5,0,0,0.00
2013-5-17,86.8,74.0,60.9,68.8,63.1,58.3,92,71,48,30.05,29.94,1,0,0,0.00
2013-5-18,74.7,67.6,61.6,68.0,63.6,59.1,94,87,78,30.13,30.04,1,0,0,0.05
2013-5-19,76.0,68.6,63.6,69.5,65.4,61.5,95,90,78,30.10,30.01,1,0,0,0.07
2013-5-20,80.1,70.6,67.1,72.5,67.6,64.9,95,91,73,30.08,29.98,2,0,0,0.33
2013-5-21,87.9,75.7,67.4,74.5,69.4,65.6,96,82,57,30.01,29.89,2,0,0,0.00
2013-5-22,85.8,75.3,66.8,72.3,68.0,63.8,92,79,63,29.97,29.84,3,0,0,0.14
2013-5-23,78.8,69.6,63.6,70.1,65.5,61.2,95,87,71,29.91,29.77,4,0,0,0.30
2013-5-24,68.1,62.4,51.6,61.4,52.1,39.6,94,71,46,30.18,29.80,3,0,0,0.00
2013-5-25,75.3,58.8,42.9,48.5,42.1,37.4,88,57,33,30.27,30.11,4,0,0,0.00
2013-5-26,75.7,62.1,51.0,55.7,48.8,40.6,85,64,44,30.26,30.14,2,0,0,0.00
2013-5-27,81.2,67.0,50.9,62.7,55.7,48.7,94,70,48,30.26,30.11,3,0,0,0.00
2013-5-28,85.6,73.7,63.0,68.7,64.3,57.1,92,74,54,30.20,30.10,4,1,0,0.00
2013-5-29,88.5,75.8,63.7,70.1,64.9,59.6,88,70,50,30.19,30.11,4,1,0,0.00
2013-5-30,88.2,74.9,64.1,69.7,64.9,61.4,93,73,47,30.23,30.13,3,0,0,0.00
2013-5-31,86.9,75.6,64.9,71.6,66.7,61.4,94,75,57,30.18,30.06,2,0,0,0.00
2013-6-1,88.8,78.2,69.4,68.7,66.9,64.4,90,70,47,30.08,29.96,4,1,0,0.00
2013-6-2,82.5,74.2,69.2,70.8,67.5,65.1,95,80,66,29.99,29.86,4,1,0,0.27
2013-6-3,69.7,68.7,67.6,68.2,67.2,66.1,95,95,94,29.90,29.84,1,0,0,0.62
2013-6-4,76.1,70.9,63.0,66.4,64.3,60.4,92,80,71,30.07,30.01,0,0,0,0.00
2013-6-5,73.8,67.2,61.2,68.3,63.3,59.1,95,88,73,30.11,29.99,2,0,0,0.04
2013-6-6,73.3,68.6,63.6,71.7,67.0,61.8,96,95,92,29.99,29.77,2,0,0,0.69
2013-6-7,75.0,70.3,67.8,72.0,68.4,66.3,96,94,87,29.81,29.60,1,0,0,0.39
2013-6-8,85.1,73.2,61.4,70.2,66.2,59.7,96,81,54,30.06,29.79,3,0,0,0.42
2013-6-9,88.2,74.6,65.1,74.2,68.6,63.3,96,83,60,30.12,30.01,4,0,0,0.18
2013-6-10,82.8,73.3,69.8,74.5,70.0,66.9,96,90,73,30.05,29.82,5,1,0,1.11
2013-6-11,84.8,75.2,67.4,70.1,67.0,64.1,95,77,56,29.93,29.85,4,1,0,0.02
2013-6-12,91.2,75.6,64.0,77.6,68.2,61.4,94,79,61,29.95,29.84,2,0,0,0.00
2013-6-17,81.9,78.0,73.9,75.4,73.1,70.7,90,85,79,29.93,29.88,0,0,0,0.17
2013-6-18,82.6,72.9,69.0,73.9,69.4,66.3,94,89,72,29.92,29.75,3,0,0,0.04
2013-6-19,81.6,71.9,62.8,70.3,66.4,61.3,96,84,65,30.09,29.86,0,0,0,0.04
2013-6-20,83.5,71.0,63.2,70.0,65.5,61.4,95,84,61,30.22,30.09,0,0,0,0.00
2013-6-21,86.3,72.5,59.5,69.1,62.3,56.6,92,73,53,30.25,30.16,0,0,0,0.00
2013-6-22,84.6,71.7,61.2,72.8,66.1,57.6,94,83,65,30.20,30.08,1,0,0,0.00
2013-6-23,89.7,75.9,67.2,75.4,69.7,65.4,95,82,60,30.18,30.08,1,0,0,0.00
2013-6-24,89.3,77.7,70.4,76.9,71.8,68.2,95,83,61,30.16,30.04,3,0,0,0.03
2013-6-25,90.9,77.0,70.5,76.1,71.1,68.3,95,83,58,30.08,29.95,4,0,0,0.03
2013-6-26,93.6,76.2,68.3,77.0,70.4,66.2,94,84,56,29.99,29.84,7,0,0,0.18
2013-6-27,86.8,77.3,67.8,76.1,71.3,66.0,96,83,67,29.90,29.68,4,1,0,0.01
2013-6-28,91.2,79.3,70.7,76.7,71.9,68.4,95,79,59,29.72,29.53,6,1,0,0.41
2013-6-29,87.2,76.9,68.7,74.5,70.3,66.9,96,81,57,29.67,29.56,1,0,0,0.01
2013-6-30,86.3,75.7,69.7,75.5,71.1,67.8,94,86,65,29.82,29.65,1,0,0,0.23
2013-7-1,82.1,74.5,69.0,73.5,70.0,67.5,96,86,73,29.95,29.79,2,0,0,0.16
2013-7-2,77.8,73.2,71.3,72.9,70.3,69.0,94,91,84,30.14,29.94,2,0,0,0.56
2013-7-3,80.9,73.6,71.3,75.6,71.9,69.5,96,94,82,30.19,30.09,1,0,0,0.17
2013-7-4,86.9,76.7,72.6,78.0,72.9,70.8,96,88,67,30.22,30.13,2,0,0,0.79
2013-7-5,87.5,76.9,71.0,77.5,72.5,69.5,96,87,68,30.22,30.13,5,0,0,0.64
2013-7-6,89.1,77.3,70.5,75.5,72.1,69.0,96,85,60,30.21,30.07,2,0,0,0.20
2013-7-7,86.7,76.8,71.3,76.0,72.5,69.0,96,87,69,30.15,30.02,2,0,0,0.13
2013-7-8,88.3,77.6,70.1,76.2,71.7,68.6,96,83,61,30.15,30.05,1,0,0,0.54
2013-7-9,90.3,80.1,72.2,78.1,73.9,70.7,96,82,61,30.11,30.00,3,0,0,0.00
2013-7-10,88.3,78.9,71.5,76.8,72.9,69.7,95,83,65,30.05,29.89,3,0,0,0.00
2013-7-11,84.0,76.9,71.6,76.1,73.2,70.1,95,89,77,29.93,29.83,1,0,0,0.04
2013-7-12,74.8,71.1,68.4,71.3,68.3,65.9,95,91,81,30.00,29.84,1,0,0,0.01
2013-7-13,78.6,72.3,68.3,73.8,69.5,66.0,95,91,84,30.13,30.00,0,0,0,0.01
2013-7-14,88.0,77.6,71.6,76.0,72.3,70.0,95,85,64,30.27,30.12,1,0,0,0.03
2013-7-15,89.4,78.1,68.4,76.1,71.6,66.6,96,82,60,30.30,30.22,0,0,0,0.01
2013-7-16,94.6,80.5,67.9,79.3,72.9,66.1,96,79,56,30.25,30.15,0,0,0,0.00
2013-7-17,83.6,77.0,74.2,76.8,73.4,71.0,92,89,79,30.17,30.10,0,0,0,0.00
2013-7-18,93.3,82.0,72.6,80.2,75.3,70.8,95,81,60,30.11,29.99,0,0,0,0.00
2013-7-19,91.6,84.2,73.9,78.2,75.6,71.7,94,76,62,30.05,29.93,3,0,0,0.00
2013-7-20,88.9,78.6,74.3,77.9,73.5,71.5,92,85,67,29.98,29.87,4,0,0,0.02
2013-7-21,87.4,76.1,72.7,79.2,72.6,69.7,95,89,70,29.95,29.88,1,0,0,0.13
2013-7-22,88.1,77.6,70.7,76.8,72.6,69.2,96,86,66,29.93,29.77,2,0,0,0.00
2013-7-23,90.6,79.9,71.0,75.3,71.7,68.6,92,77,56,29.80,29.68,4,1,0,0.00
2013-7-24,90.7,78.8,68.4,75.9,70.8,66.3,95,78,56,29.82,29.70,2,0,0,0.00
2013-7-25,82.1,73.2,65.0,70.6,67.0,62.3,92,81,67,30.01,29.81,1,0,0,0.00
2013-7-26,85.4,73.9,63.8,71.5,66.3,62.0,95,79,60,30.08,29.99,2,0,0,0.00
2013-7-27,77.1,71.0,68.3,70.4,67.9,65.3,95,90,77,30.02,29.91,4,0,0,1.26
2013-7-28,85.2,75.4,68.5,75.7,70.1,67.0,96,85,65,29.96,29.88,1,0,0,0.02
2013-7-29,85.6,73.8,64.5,68.2,65.3,62.6,95,77,50,30.14,29.96,1,0,0,0.08
2013-7-30,72.0,64.4,60.7,68.4,61.5,58.1,93,90,88,30.19,30.13,0,0,0,0.00
2013-7-31,82.0,74.2,69.2,74.1,69.9,67.4,94,87,70,30.13,29.95,1,0,0,0.61
2013-8-1,88.0,76.4,70.0,74.7,71.1,68.5,96,85,60,29.96,29.82,1,0,0,0.00
2013-8-2,87.6,76.6,67.0,74.3,69.0,65.2,95,79,54,30.00,29.89,2,0,0,0.00
2013-8-3,88.5,77.9,69.5,76.8,72.1,67.5,95,83,64,29.98,29.88,4,0,0,0.00
2013-8-4,86.5,76.5,70.2,70.7,68.4,63.1,93,78,49,30.00,29.87,1,0,0,0.00
2013-8-5,80.9,72.6,63.0,70.8,66.2,59.9,92,81,67,30.06,29.95,1,0,0,0.00
2013-8-6,78.8,71.4,63.7,71.6,67.2,61.6,95,87,77,30.03,29.96,3,0,0,1.16
2013-8-7,83.3,75.0,69.1,73.2,69.6,66.7,93,84,69,30.06,29.99,1,0,0,0.00
2013-8-8,85.4,76.8,71.8,76.6,72.1,68.9,94,86,71,30.04,29.96,2,0,0,0.02
2013-8-9,91.3,79.4,73.9,78.2,74.0,71.5,93,84,62,30.01,29.93,4,1,0,0.04
2013-8-10,90.8,76.6,71.7,79.7,72.9,69.4,95,89,64,30.06,29.99,7,0,0,0.50
2013-8-11,90.9,77.7,70.0,78.1,73.0,68.8,96,86,61,30.09,29.98,1,0,0,0.00
2013-8-12,74.6,73.4,72.4,72.7,71.7,70.8,95,94,93,30.02,29.98,0,0,0,0.00
2013-8-13,87.4,76.7,71.2,76.8,72.7,69.7,96,88,69,29.86,29.75,5,0,0,0.33
2013-8-14,76.1,71.2,67.2,69.8,64.3,59.6,94,80,61,29.98,29.82,1,0,0,0.00
2013-8-16,72.4,65.0,59.6,62.2,59.6,57.1,92,83,68,30.17,30.10,0,0,0,0.00
2013-8-17,65.5,62.1,58.9,64.3,60.3,56.9,96,94,89,30.19,30.12,0,0,0,1.32
2013-8-18,76.1,68.5,64.2,69.3,65.5,62.9,96,90,78,30.20,30.10,1,0,0,0.00
2013-8-19,76.6,69.1,64.7,71.7,66.8,63.2,96,93,84,30.17,30.07,0,0,0,0.00
2013-8-20,80.9,72.0,64.6,73.9,68.3,63.1,96,89,74,30.17,30.08,0,0,0,0.20
2013-8-21,84.1,74.8,69.0,77.3,71.7,67.4,96,90,74,30.19,30.07,0,0,0,0.03
2013-8-22,87.8,77.6,71.3,76.7,72.4,67.8,96,85,63,30.11,29.96,1,0,0,0.01
2013-8-23,85.6,76.6,67.4,75.2,70.2,65.6,94,81,65,30.00,29.91,3,0,0,0.00
2013-8-25,79.3,70.5,58.2,66.4,62.7,56.5,95,77,60,30.38,30.27,1,0,0,0.00
2013-8-26,61.2,57.6,55.0,59.7,55.5,53.0,95,93,91,30.31,30.24,0,0,0,0.01
2013-8-27,88.0,77.8,64.4,75.8,71.3,62.1,94,81,62,30.05,29.93,1,0,0,0.00
2013-8-28,85.0,76.6,68.2,77.0,72.1,66.4,96,86,73,29.97,29.84,1,0,0,0.00
2013-8-29,87.5,78.3,72.2,76.6,72.7,69.6,93,83,69,29.98,29.82,1,0,0,0.00
2013-8-30,87.1,75.0,66.9,73.1,69.1,65.0,96,83,58,30.04,29.90,1,0,0,0.00
2013-8-31,88.0,74.7,68.0,76.4,70.1,65.8,94,87,66,29.92,29.83,3,0,0,0.06
2013-9-1,88.6,73.6,67.7,77.9,70.4,66.2,96,90,69,29.87,29.76,3,0,0,0.36
2013-9-2,88.2,75.7,68.0,77.0,70.9,66.5,96,86,65,29.87,29.77,2,0,0,0.01
2013-9-3,88.5,77.3,69.6,75.1,71.2,65.7,96,83,60,29.93,29.76,1,0,0,0.00
2013-9-4,85.6,72.3,61.7,71.3,65.3,59.4,92,80,57,30.07,29.93,1,0,0,0.00
2013-9-5,86.7,72.2,61.5,67.4,63.3,58.4,95,77,42,30.09,30.01,1,0,0,0.01
2013-9-6,80.5,68.6,60.3,64.9,60.9,57.0,91,78,57,30.18,30.07,1,0,0,0.00
2013-9-7,81.3,68.1,57.2,69.2,62.4,55.2,95,83,62,30.12,29.95,2,0,0,0.00
2013-9-8,86.8,73.3,62.5,74.8,67.5,60.7,95,83,60,29.96,29.89,0,0,0,0.00
2013-9-9,86.6,74.6,65.9,73.4,69.2,64.1,96,84,62,30.12,29.96,0,0,0,0.01
2013-9-10,88.5,76.5,68.2,75.7,70.7,66.3,96,83,60,30.20,30.10,1,0,0,0.00
2013-9-11,89.8,76.4,67.9,75.4,70.7,65.8,94,83,61,30.17,30.03,2,0,0,0.01
2013-9-12,87.2,74.9,69.0,75.6,70.3,66.8,94,86,66,30.03,29.88,1,0,0,0.00
2013-9-15,77.2,67.0,64.0,65.1,62.5,61.4,92,86,66,30.13,30.09,0,0,0,0.00
2013-9-16,83.7,70.6,61.6,68.2,63.6,59.6,95,80,52,30.12,30.04,3,0,0,0.00
2013-9-18,69.4,62.3,58.7,57.9,56.6,55.5,89,82,65,30.19,30.16,0,0,0,0.00
2013-9-19,74.0,64.6,56.4,65.3,59.4,54.1,93,84,66,30.18,30.06,1,0,0,0.00
2013-9-20,75.8,68.5,64.2,69.6,65.5,62.1,94,90,81,30.06,29.92,1,0,0,0.00
2013-9-21,70.6,66.9,63.7,67.2,64.8,62.2,95,93,89,29.93,29.72,1,0,0,0.60
2013-9-22,76.4,68.0,58.0,62.2,58.8,55.7,95,74,56,29.89,29.72,1,0,0,0.00
2013-9-23,71.8,60.9,52.3,59.0,54.2,49.3,92,80,59,30.06,29.89,1,0,0,0.00
2013-9-24,79.5,64.3,54.0,63.6,57.8,51.6,94,81,56,30.08,29.92,1,0,0,0.00
2013-9-25,70.2,60.5,53.0,63.3,57.1,51.0,95,89,74,29.93,29.86,0,0,0,0.01
2013-9-26,74.8,66.9,55.5,61.8,57.0,52.3,95,72,51,30.03,29.93,1,0,0,0.00
2013-9-27,74.6,61.0,51.5,60.6,54.8,49.4,95,82,58,30.18,30.03,1,0,0,0.01
2013-9-28,69.1,57.3,51.1,58.0,52.9,49.1,95,86,64,30.26,30.17,1,0,0,0.01
2013-9-29,71.3,59.4,51.3,58.5,53.7,49.1,94,82,60,30.18,30.03,0,0,0,0.00
2013-9-30,76.2,60.5,49.6,61.2,54.4,47.7,95,82,56,30.09,29.98,1,0,0,0.01
2013-10-1,82.3,65.8,52.7,65.6,58.8,50.7,96,80,51,30.10,30.00,1,0,0,0.00
2013-10-2,82.8,67.3,54.8,66.3,60.2,52.8,96,80,51,30.12,30.02,1,0,0,0.00
2013-10-3,82.6,67.4,59.0,68.1,61.7,57.0,95,83,56,30.10,30.02,1,0,0,0.00
2013-10-5,88.0,79.0,65.1,71.7,68.5,63.9,96,72,53,30.09,29.99,0,0,0,0.00
2013-10-6,83.8,71.5,62.9,69.6,64.9,60.4,94,81,60,30.02,29.88,2,0,0,0.00
2013-10-7,73.8,68.8,59.0,69.5,65.2,52.8,95,89,76,29.99,29.77,6,0,0,0.73
2013-10-8,66.0,58.1,53.7,52.8,49.5,46.3,83,73,59,30.21,29.99,3,0,0,0.00
2013-10-9,68.4,57.9,51.8,56.5,50.3,46.5,85,76,59,30.21,30.11,2,0,0,0.00
2013-10-10,67.2,58.9,52.7,60.8,55.3,49.4,94,88,79,30.12,29.94,2,0,0,0.10
2013-10-11,72.4,65.2,59.6,64.9,60.6,57.3,93,86,72,29.96,29.89,1,0,0,0.00
2013-10-12,68.6,63.3,56.6,64.7,60.4,54.6,95,90,81,30.08,29.94,1,0,0,0.03
2013-10-13,65.2,62.1,60.3,63.1,60.2,58.0,95,94,90,30.21,30.07,0,0,0,0.12
2013-10-14,64.8,60.3,57.9,60.3,58.0,55.4,96,92,84,30.24,30.17,1,0,0,0.05
2013-10-15,72.1,60.4,52.2,58.1,54.8,50.4,95,83,58,30.20,30.05,1,0,0,0.00
2013-10-16,74.3,64.9,59.5,62.8,58.8,55.7,92,81,64,30.07,29.92,0,0,0,0.00
2013-10-20,64.0,52.8,42.0,45.3,41.8,38.6,92,68,47,30.11,30.02,0,0,0,0.01
2013-10-21,67.9,51.1,37.0,52.4,45.0,35.2,95,81,54,30.16,29.98,2,0,0,0.00
2013-10-22,68.2,59.2,53.2,56.9,53.6,50.0,91,83,59,29.99,29.77,0,0,0,0.00
2013-10-23,64.3,57.2,49.9,56.2,47.9,34.7,94,74,43,29.91,29.68,8,2,0,0.00
2013-10-25,38.5,36.3,33.4,29.6,28.9,28.4,83,74,69,30.37,30.35,0,0,0,0.00
2013-10-26,56.9,37.1,27.2,37.0,29.5,24.9,92,77,45,30.36,30.14,4,1,0,0.00
2013-10-27,51.0,47.9,45.2,44.6,43.6,42.3,90,85,78,30.10,30.06,0,0,0,0.00
2013-10-28,69.1,55.3,43.4,55.5,49.1,40.9,94,81,58,30.25,30.10,1,0,0,0.00
2013-10-29,71.2,59.5,51.3,57.3,53.1,48.5,94,81,61,30.32,30.23,1,0,0,0.00
2013-10-31,68.1,68.0,67.8,63.1,62.7,62.1,84,83,82,29.88,29.84,5,4,0,0.00
2013-11-1,68.9,65.6,58.2,64.2,61.7,55.9,94,87,80,29.85,29.63,6,2,0,0.25
2013-11-2,68.0,58.5,48.7,57.3,48.0,37.1,95,71,43,29.94,29.67,6,1,0,0.02
2013-11-3,61.5,49.2,39.4,40.4,37.7,35.3,86,66,45,30.20,29.94,3,0,0,0.00
2013-11-4,44.6,41.6,38.1,34.1,32.1,31.0,76,69,63,30.55,30.52,0,0,0,0.00
2013-11-5,57.2,46.0,33.2,48.4,38.3,27.9,90,75,62,30.58,30.44,1,0,0,0.00
2013-11-6,70.9,55.8,47.4,56.2,48.3,43.4,87,77,59,30.44,30.18,1,0,0,0.00
2013-11-7,50.7,47.0,43.8,36.5,34.6,33.2,66,62,58,30.12,30.08,1,0,0,0.01
2013-11-8,54.9,43.8,30.4,33.5,30.1,26.5,90,61,38,30.29,30.12,4,1,0,0.00
2013-11-9,56.1,49.5,29.5,34.5,32.9,27.2,91,54,42,30.38,30.18,4,1,0,0.00
2013-11-11,59.0,47.4,41.5,33.9,32.8,31.3,72,58,37,30.18,30.13,2,0,0,0.00
2013-11-12,57.0,43.2,30.3,40.7,32.0,19.2,90,66,46,30.45,30.03,3,0,0,0.10
2013-11-13,45.8,33.5,24.4,23.5,19.8,17.7,80,59,37,30.56,30.44,2,0,0,0.01
2013-11-14,46.0,39.9,36.7,27.4,26.1,24.8,66,58,45,30.34,30.32,0,0,0,0.00
2013-11-15,60.2,46.2,31.5,46.7,34.7,24.3,89,65,40,30.35,30.20,2,0,0,0.03
2013-11-16,49.9,49.6,49.2,47.8,47.3,46.7,93,92,89,30.24,30.21,0,0,0,0.02
2013-11-17,65.6,62.2,56.8,62.5,59.2,55.4,95,90,82,30.14,29.84,2,0,0,0.09
2013-11-18,71.2,62.7,50.9,64.6,50.4,30.8,96,68,37,29.97,29.78,6,2,0,0.14
2013-11-19,53.4,46.5,42.0,32.0,29.8,27.9,61,52,41,30.31,29.97,3,0,0,0.00
2013-11-20,49.9,41.4,34.7,32.7,29.4,25.9,71,63,50,30.48,30.30,3,0,0,0.00
2013-11-21,54.6,46.4,38.9,43.8,38.5,30.3,81,74,66,30.51,30.39,1,0,0,0.00
2013-11-22,64.0,55.6,47.9,57.5,50.2,42.6,87,82,78,30.40,30.08,4,1,0,0.00
2013-11-23,47.9,43.6,39.4,25.9,24.3,21.3,51,46,39,30.19,30.10,3,1,0,0.01
2013-11-24,39.4,30.4,25.5,22.0,13.8,6.7,54,50,41,30.55,30.18,6,1,0,0.00
2013-11-25,40.0,30.6,18.9,21.4,13.0,7.9,73,49,34,30.58,30.38,1,0,0,0.00
2013-11-26,42.3,36.4,32.0,40.7,31.8,15.6,94,84,42,30.37,29.61,3,0,0,2.01
2013-11-27,43.8,37.2,27.6,42.5,31.1,15.5,95,79,59,30.17,29.52,7,2,0,0.41
2013-11-28,42.5,29.7,20.0,24.0,19.3,14.9,85,66,45,30.48,30.17,2,0,0,0.00
2013-11-29,47.6,34.4,22.9,29.4,24.0,19.6,89,67,47,30.65,30.48,3,0,0,0.00
2013-11-30,43.7,32.7,25.6,27.6,23.8,20.0,85,71,51,30.67,30.39,1,0,0,0.00
2013-12-1,56.2,37.0,23.0,36.1,28.0,20.2,91,73,44,30.39,30.03,2,0,0,0.00
2013-12-2,59.0,41.9,27.6,40.7,33.2,25.1,93,74,50,30.03,29.82,2,0,0,0.00
2013-12-3,57.9,50.0,34.4,49.5,44.7,31.5,93,83,72,29.98,29.89,3,0,0,0.01
2013-12-4,59.0,54.1,49.3,56.2,51.9,46.7,95,92,89,30.06,29.96,2,0,0,0.15
2013-12-5,65.8,61.4,57.8,63.0,59.8,56.1,96,94,89,30.08,29.98,4,1,0,0.03
2013-12-6,76.3,69.8,64.8,65.0,63.7,63.0,95,82,65,29.99,29.90,9,4,0,0.00
2013-12-7,70.3,48.5,40.8,64.9,44.0,33.6,93,84,74,30.44,29.94,5,1,0,0.34
2013-12-8,40.8,34.2,31.3,33.7,30.0,27.4,93,85,68,30.47,30.29,2,0,0,0.15
2013-12-9,42.7,37.5,32.0,41.4,35.9,30.2,95,94,93,30.29,30.06,2,0,0,0.27
2013-12-10,50.1,40.6,28.1,43.6,35.3,22.3,95,83,55,30.31,29.93,7,1,0,0.27
2013-12-11,47.6,35.1,24.5,29.1,24.5,20.4,87,67,41,30.45,30.29,5,0,0,0.00
2013-12-12,43.1,34.9,26.3,25.8,19.4,12.4,77,54,30,30.42,30.29,5,1,0,0.00
2013-12-13,49.2,34.4,22.5,30.3,22.5,16.9,84,64,37,30.39,30.27,4,0,0,0.00
2013-12-14,39.7,36.9,35.3,35.1,32.9,29.5,94,86,74,30.30,29.77,2,0,0,0.66
2013-12-15,49.5,40.8,31.9,41.8,32.6,26.3,95,74,57,30.08,29.73,7,2,0,0.01
2013-12-16,55.0,41.1,27.6,35.9,31.1,24.2,89,69,46,30.17,30.06,3,0,0,0.00
2013-12-17,61.7,46.2,32.5,40.6,34.8,29.1,90,67,45,30.11,29.85,10,2,0,0.00
2013-12-18,47.9,39.4,29.6,31.4,22.0,18.2,74,50,36,30.27,30.03,6,1,0,0.00
2013-12-19,62.9,45.5,28.6,33.3,27.4,21.6,81,52,32,30.31,30.19,5,1,0,0.00
2013-12-20,64.1,53.9,42.4,52.2,41.7,30.3,82,64,50,30.22,30.09,6,2,0,0.00
2013-12-21,71.3,61.0,50.9,63.5,56.0,48.4,92,84,71,30.11,29.97,6,2,0,0.00
2013-12-22,71.6,66.0,60.6,67.3,62.9,58.6,95,90,76,30.04,29.92,8,3,0,0.86
2013-12-23,63.7,56.6,40.9,61.9,53.1,31.5,95,88,69,30.16,29.95,6,1,0,0.77
2013-12-24,43.9,36.5,26.7,31.7,24.5,14.4,77,62,45,30.47,30.14,7,1,0,0.00
2013-12-25,37.8,27.1,19.7,18.6,14.3,12.0,84,60,38,30.56,30.40,2,0,0,0.00
2013-12-26,50.8,34.2,22.2,30.5,22.5,16.6,85,64,44,30.40,30.26,3,0,0,0.00
2013-12-27,51.1,34.9,23.8,27.3,23.1,18.9,88,65,37,30.48,30.38,2,0,0,0.00
2013-12-28,55.8,39.4,24.6,40.1,29.5,21.0,91,71,38,30.42,30.15,2,0,0,0.07
2013-12-29,55.4,45.3,40.7,48.9,41.7,37.5,95,87,73,30.16,29.72,5,1,0,0.87
2013-12-30,50.9,42.2,33.7,41.8,36.6,31.1,93,81,67,30.13,29.92,2,0,0,0.00
2013-12-31,49.4,40.0,31.7,35.1,28.4,22.6,92,65,41,30.36,30.11,8,1,0,0.01
2014-1-1,50.2,37.5,27.8,29.8,26.5,23.2,88,66,43,30.40,30.14,2,0,0,0.00
2014-1-2,45.1,38.9,34.8,40.2,33.7,28.1,92,82,70,30.14,29.64,5,0,0,0.36